Time;durP1;ratioP1;P1;durP2;ratioP2;P2;SDS_P1;SDS_P2;PMS_P1;PMS_P2;Temp;Humidity;BMP_temperature;BMP_pressure;BME280_temperature;BME280_humidity;BME280_pressure;Samples;Min_cycle;Max_cycle;Signal;HPM_P1;HPM_P2
2024/01/14 00:00:19;;;;;;;;;;;;;;;17.68;57.85;98872.53;2080675;28;20043;-65
2024/01/14 00:01:21;;;;;;;;;;;;;;;17.70;57.88;98873.16;2083019;28;19971;-65
2024/01/14 00:02:21;;;;;;;;;;;;;;;17.70;57.92;98869.66;2078280;28;19936;-65
2024/01/14 00:03:23;;;;;;;;;;;;;;;17.70;57.87;98858.94;2082744;28;20526;-65
2024/01/14 00:04:24;;;;;;;;;;;;;;;17.71;58.11;98861.41;2084709;28;19936;-66
2024/01/14 00:05:26;;;;;;;;;;;;;;;17.74;57.84;98860.19;2087449;28;20374;-65
2024/01/14 00:06:26;;;;;;;;;;;;;;;17.78;57.71;98856.13;2086701;28;19972;-65
2024/01/14 00:07:28;;;;;;;;;;;;;;;17.81;57.95;98861.13;2087213;28;19933;-66
2024/01/14 00:08:29;;;;;;;;;;;;;;;17.83;57.79;98856.41;2087981;28;19931;-67
2024/01/14 00:09:32;;;;;;;;;;;;;;;17.87;57.77;98857.66;2086154;28;19929;-65
2024/01/14 00:10:33;;;;;;;;;;;;;;;17.88;57.84;98856.63;2085323;28;19924;-65
2024/01/14 00:11:34;;;;;;;;;;;;;;;17.90;57.78;98854.59;2087735;28;19928;-66
2024/01/14 00:12:35;;;;;;;;;;;;;;;17.92;57.58;98863.28;2086931;28;20617;-65
2024/01/14 00:13:36;;;;;;;;;;;;;;;17.94;57.76;98855.88;2082412;28;19940;-65
2024/01/14 00:14:37;;;;;;;;;;;;;;;17.97;57.57;98843.91;2087158;28;19929;-66
2024/01/14 00:15:39;;;;;;;;;;;;;;;17.99;57.43;98848.06;2086558;28;20012;-66
2024/01/14 00:16:39;;;;;;;;;;;;;;;18.00;57.63;98855.09;2084538;28;20445;-66
2024/01/14 00:17:40;;;;;;;;;;;;;;;18.02;57.61;98852.22;2082915;28;19960;-64
2024/01/14 00:18:42;;;;;;;;;;;;;;;18.03;57.62;98846.66;2079309;28;20029;-64
2024/01/14 00:19:43;;;;;;;;;;;;;;;18.03;57.24;98843.97;2076886;28;20448;-65
2024/01/14 00:20:44;;;;;;;;;;;;;;;18.05;57.67;98846.44;2081384;28;20005;-66
2024/01/14 00:21:45;;;;;;;;;;;;;;;18.05;57.48;98841.06;2083793;28;20701;-65
2024/01/14 00:22:47;;;;;;;;;;;;;;;18.04;57.72;98840.25;2087469;28;20054;-65
2024/01/14 00:23:47;;;;;;;;;;;;;;;18.04;57.62;98834.06;2085000;28;19932;-65
2024/01/14 00:24:49;;;;;;;;;;;;;;;18.06;57.70;98838.22;2082912;28;20011;-65
2024/01/14 00:25:51;;;;;;;;;;;;;;;18.06;57.65;98832.84;2090620;28;19928;-65
2024/01/14 00:26:51;;;;;;;;;;;;;;;18.07;57.64;98834.50;2085309;28;20944;-66
2024/01/14 00:27:53;;;;;;;;;;;;;;;18.07;57.63;98834.50;2086296;28;20020;-66
2024/01/14 00:28:54;;;;;;;;;;;;;;;18.06;57.53;98826.66;2086823;28;19928;-65
2024/01/14 00:29:57;;;;;;;;;;;;;;;18.07;57.64;98834.50;2084998;28;20031;-65
2024/01/14 00:30:58;;;;;;;;;;;;;;;18.08;57.63;98835.34;2087167;28;19964;-65
2024/01/14 00:31:58;;;;;;;;;;;;;;;18.07;57.74;98829.13;2085582;28;19944;-65
2024/01/14 00:33:00;;;;;;;;;;;;;;;18.06;57.55;98829.34;2087869;28;19933;-65
2024/01/14 00:34:01;;;;;;;;;;;;;;;18.06;57.74;98827.47;2086279;28;19971;-65
2024/01/14 00:35:02;;;;;;;;;;;;;;;18.07;57.79;98826.44;2088940;28;19929;-65
2024/01/14 00:36:03;;;;;;;;;;;;;;;18.05;57.60;98823.16;2087290;28;20373;-65
2024/01/14 00:37:05;;;;;;;;;;;;;;;18.07;57.70;98817.56;2084755;28;19924;-65
2024/01/14 00:38:05;;;;;;;;;;;;;;;18.06;57.81;98822.09;2088189;28;19932;-66
2024/01/14 00:39:06;;;;;;;;;;;;;;;18.05;57.68;98814.25;2086073;28;19955;-65
2024/01/14 00:40:10;;;;;;;;;;;;;;;18.05;57.97;98809.72;2082592;28;20368;-66
2024/01/14 00:41:11;;;;;;;;;;;;;;;18.06;57.72;98822.09;2085149;28;19936;-65
2024/01/14 00:42:12;;;;;;;;;;;;;;;18.06;57.68;98816.75;2087680;28;19995;-65
2024/01/14 00:43:13;;;;;;;;;;;;;;;18.03;57.75;98814.44;2085902;28;19932;-66
2024/01/14 00:44:15;;;;;;;;;;;;;;;18.04;57.74;98805.38;2084326;28;20581;-65
2024/01/14 00:45:15;;;;;;;;;;;;;;;18.04;57.93;98815.28;2086610;28;19936;-65
2024/01/14 00:46:17;;;;;;;;;;;;;;;18.04;57.93;98818.78;2087332;28;20843;-65
2024/01/14 00:47:18;;;;;;;;;;;;;;;18.04;57.77;98813.41;2087259;28;20428;-65
2024/01/14 00:48:20;;;;;;;;;;;;;;;18.02;57.86;98810.09;2085382;28;20036;-65
2024/01/14 00:49:20;;;;;;;;;;;;;;;18.02;57.94;98807.41;2084546;28;20035;-65
2024/01/14 00:50:22;;;;;;;;;;;;;;;18.00;57.78;98804.09;2085092;28;20056;-65
2024/01/14 00:51:23;;;;;;;;;;;;;;;18.01;58.02;98799.56;2092586;28;19931;-65
2024/01/14 00:52:23;;;;;;;;;;;;;;;17.99;58.14;98799.75;2085127;28;19967;-65
2024/01/14 00:53:25;;;;;;;;;;;;;;;18.00;57.90;98800.59;2088984;28;20600;-65
2024/01/14 00:54:26;;;;;;;;;;;;;;;18.00;57.96;98801.44;2085658;28;19932;-65
2024/01/14 00:55:28;;;;;;;;;;;;;;;18.00;58.00;98796.06;2083500;28;20008;-65
2024/01/14 00:56:29;;;;;;;;;;;;;;;18.00;57.92;98803.28;2088270;28;19924;-66
2024/01/14 00:57:30;;;;;;;;;;;;;;;18.00;58.04;98795.22;2086349;28;19974;-68
2024/01/14 00:58:32;;;;;;;;;;;;;;;17.99;57.90;98797.06;2082066;28;19940;-65
2024/01/14 00:59:32;;;;;;;;;;;;;;;17.99;57.89;98796.25;2086793;28;20671;-65
2024/01/14 01:00:33;;;;;;;;;;;;;;;17.99;57.97;98798.91;2084415;28;19928;-65
2024/01/14 01:01:35;;;;;;;;;;;;;;;17.98;57.89;98800.78;2088103;28;19963;-65
2024/01/14 01:02:35;;;;;;;;;;;;;;;17.99;58.12;98805.13;2089311;28;19925;-65
2024/01/14 01:03:37;;;;;;;;;;;;;;;17.98;57.81;98797.28;2086300;28;19932;-66
2024/01/14 01:04:37;;;;;;;;;;;;;;;17.94;58.02;98791.47;2090458;28;19959;-65
2024/01/14 01:05:39;;;;;;;;;;;;;;;17.96;58.10;98786.72;2085984;28;19929;-66
2024/01/14 01:06:40;;;;;;;;;;;;;;;17.98;57.80;98786.53;2088833;28;19978;-65
2024/01/14 01:07:41;;;;;;;;;;;;;;;17.97;57.79;98788.41;2089412;28;19998;-65
2024/01/14 01:08:42;;;;;;;;;;;;;;;17.97;58.09;98783.03;2085634;28;19936;-65
2024/01/14 01:09:43;;;;;;;;;;;;;;;17.97;57.88;98788.41;2088372;28;20019;-65
2024/01/14 01:10:45;;;;;;;;;;;;;;;17.97;57.97;98784.88;2085368;28;19925;-65
2024/01/14 01:11:47;;;;;;;;;;;;;;;17.96;57.83;98781.34;2087242;28;19950;-66
2024/01/14 01:12:48;;;;;;;;;;;;;;;17.99;57.74;98783.66;2088238;28;19935;-65
2024/01/14 01:13:49;;;;;;;;;;;;;;;17.97;58.00;98783.03;2087203;28;20050;-65
2024/01/14 01:14:50;;;;;;;;;;;;;;;17.96;57.94;98781.34;2086123;28;20018;-65
2024/01/14 01:15:52;;;;;;;;;;;;;;;17.96;57.99;98772.47;2082919;28;20632;-65
2024/01/14 01:16:52;;;;;;;;;;;;;;;17.96;58.03;98781.34;2084172;28;19932;-65
2024/01/14 01:17:54;;;;;;;;;;;;;;;17.95;58.13;98771.66;2085888;28;22273;-67
2024/01/14 01:18:54;;;;;;;;;;;;;;;17.93;57.90;98773.69;2087360;28;20472;-66
2024/01/14 01:19:55;;;;;;;;;;;;;;;17.94;57.94;98770.00;2089243;28;20023;-66
2024/01/14 01:20:57;;;;;;;;;;;;;;;17.93;58.07;98771.00;2087193;28;19994;-66
2024/01/14 01:21:58;;;;;;;;;;;;;;;17.95;57.75;98773.53;2087661;28;19976;-66
2024/01/14 01:23:00;;;;;;;;;;;;;;;17.93;57.87;98773.69;2086577;28;20311;-66
2024/01/14 01:24:00;;;;;;;;;;;;;;;17.93;57.97;98779.06;2083624;28;19987;-65
2024/01/14 01:25:02;;;;;;;;;;;;;;;17.92;58.04;98777.41;2084494;28;19928;-65
2024/01/14 01:26:04;;;;;;;;;;;;;;;17.93;57.79;98780.94;2089607;28;19928;-65
2024/01/14 01:27:06;;;;;;;;;;;;;;;17.91;57.82;98774.91;2083803;28;19935;-66
2024/01/14 01:28:06;;;;;;;;;;;;;;;17.91;57.93;98775.75;2087288;28;20039;-65
2024/01/14 01:29:08;;;;;;;;;;;;;;;17.91;58.00;98777.59;2075111;28;20051;-65
2024/01/14 01:30:09;;;;;;;;;;;;;;;17.90;58.06;98768.72;2079411;28;20010;-65
2024/01/14 01:31:11;;;;;;;;;;;;;;;17.89;58.06;98767.06;2085878;28;19928;-66
2024/01/14 01:32:11;;;;;;;;;;;;;;;17.88;58.09;98770.78;2084861;28;20028;-65
2024/01/14 01:33:13;;;;;;;;;;;;;;;17.86;57.99;98779.03;2086213;28;20459;-65
2024/01/14 01:34:14;;;;;;;;;;;;;;;17.83;58.06;98775.91;2085261;28;19931;-65
2024/01/14 01:35:16;;;;;;;;;;;;;;;17.84;58.15;98782.94;2083914;28;20020;-65
2024/01/14 01:36:17;;;;;;;;;;;;;;;17.82;58.13;98772.38;2087956;28;19933;-66
2024/01/14 01:37:17;;;;;;;;;;;;;;;17.81;58.13;98775.28;2086045;28;19929;-66
2024/01/14 01:38:19;;;;;;;;;;;;;;;17.80;58.11;98778.97;2088774;28;19981;-65
2024/01/14 01:39:20;;;;;;;;;;;;;;;17.80;58.28;98773.59;2082356;28;20028;-65
2024/01/14 01:40:22;;;;;;;;;;;;;;;17.81;58.18;98768.03;2084427;28;20792;-65
2024/01/14 01:41:24;;;;;;;;;;;;;;;17.83;58.17;98778.59;2085496;28;19939;-65
2024/01/14 01:42:25;;;;;;;;;;;;;;;17.81;58.21;98778.78;2087041;28;19959;-65
2024/01/14 01:43:26;;;;;;;;;;;;;;;17.81;58.06;98786.84;2087871;28;20331;-65
2024/01/14 01:44:28;;;;;;;;;;;;;;;17.79;58.11;98785.38;2085297;28;20027;-65
2024/01/14 01:45:28;;;;;;;;;;;;;;;17.79;58.09;98775.44;2086066;28;19929;-65
2024/01/14 01:46:30;;;;;;;;;;;;;;;17.77;58.02;98776.63;2087071;28;20379;-66
2024/01/14 01:47:31;;;;;;;;;;;;;;;17.76;58.22;98772.31;2086072;28;19932;-66
2024/01/14 01:48:33;;;;;;;;;;;;;;;17.76;58.15;98777.69;2083282;28;20011;-65
2024/01/14 01:49:33;;;;;;;;;;;;;;;17.76;57.95;98778.50;2084899;28;19925;-65
2024/01/14 01:50:36;;;;;;;;;;;;;;;17.76;58.21;98777.69;2087063;28;19928;-65
2024/01/14 01:51:37;;;;;;;;;;;;;;;17.72;58.00;98777.25;2086966;28;20387;-65
2024/01/14 01:52:40;;;;;;;;;;;;;;;17.74;58.17;98780.53;2087439;28;19924;-65
2024/01/14 01:53:40;;;;;;;;;;;;;;;17.71;58.26;98769.38;2081195;28;19966;-65
2024/01/14 01:54:42;;;;;;;;;;;;;;;17.70;58.21;98778.47;2086636;28;19942;-65
2024/01/14 01:55:43;;;;;;;;;;;;;;;17.71;58.00;98775.56;2087587;28;19928;-66
2024/01/14 01:56:45;;;;;;;;;;;;;;;17.69;58.32;98774.94;2087526;28;20307;-65
2024/01/14 01:57:47;;;;;;;;;;;;;;;17.67;58.29;98774.31;2085305;28;19993;-65
2024/01/14 01:58:48;;;;;;;;;;;;;;;17.68;58.25;98773.28;2084112;28;20400;-66
2024/01/14 01:59:50;;;;;;;;;;;;;;;17.65;58.03;98770.97;2088319;28;20007;-67
2024/01/14 02:00:51;;;;;;;;;;;;;;;17.66;58.11;98767.25;2082885;28;20591;-65
2024/01/14 02:01:54;;;;;;;;;;;;;;;17.62;58.25;98761.47;2088190;28;20486;-65
2024/01/14 02:02:55;;;;;;;;;;;;;;;17.64;58.10;98761.28;2089027;28;19929;-65
2024/01/14 02:03:57;;;;;;;;;;;;;;;17.63;58.08;98757.78;2087632;28;20612;-65
2024/01/14 02:04:58;;;;;;;;;;;;;;;17.63;58.08;98763.16;2088983;28;19932;-65
2024/01/14 02:06:00;;;;;;;;;;;;;;;17.62;58.25;98760.63;2086836;28;20443;-65
2024/01/14 02:07:01;;;;;;;;;;;;;;;17.61;58.09;98759.00;2087353;28;21899;-66
2024/01/14 02:08:03;;;;;;;;;;;;;;;17.61;58.13;98750.94;2083996;28;19985;-65
2024/01/14 02:09:04;;;;;;;;;;;;;;;17.60;58.30;98747.41;2086400;28;20331;-65
2024/01/14 02:10:06;;;;;;;;;;;;;;;17.59;58.20;98748.44;2083981;28;20019;-65
2024/01/14 02:11:07;;;;;;;;;;;;;;;17.59;58.22;98740.41;2083054;28;20399;-66
2024/01/14 02:12:10;;;;;;;;;;;;;;;17.57;58.12;98745.13;2084243;28;19964;-66
2024/01/14 02:13:10;;;;;;;;;;;;;;;17.56;58.17;98748.84;2084727;28;19933;-65
2024/01/14 02:14:12;;;;;;;;;;;;;;;17.55;58.19;98731.09;2082074;28;19984;-65
2024/01/14 02:15:12;;;;;;;;;;;;;;;17.55;58.10;98739.16;2083230;28;19940;-65
2024/01/14 02:16:14;;;;;;;;;;;;;;;17.54;58.45;98742.81;2088348;28;20020;-65
2024/01/14 02:17:15;;;;;;;;;;;;;;;17.54;58.26;98739.31;2086601;28;20275;-65
2024/01/14 02:18:16;;;;;;;;;;;;;;;17.53;58.08;98735.81;2087293;28;20844;-65
2024/01/14 02:19:17;;;;;;;;;;;;;;;17.55;58.23;98735.59;2085392;28;19951;-65
2024/01/14 02:20:18;;;;;;;;;;;;;;;17.53;58.27;98730.47;2088524;28;19975;-65
2024/01/14 02:21:20;;;;;;;;;;;;;;;17.53;58.33;98729.63;2086231;28;20007;-65
2024/01/14 02:22:23;;;;;;;;;;;;;;;17.52;58.27;98731.47;2086586;28;19978;-65
2024/01/14 02:23:26;;;;;;;;;;;;;;;17.48;58.39;98724.84;2085973;28;19933;-65
2024/01/14 02:24:29;;;;;;;;;;;;;;;17.50;58.22;98730.03;2085252;28;20407;-65
2024/01/14 02:25:31;;;;;;;;;;;;;;;17.47;58.14;98725.03;2083674;28;20323;-65
2024/01/14 02:26:32;;;;;;;;;;;;;;;17.45;58.48;98722.56;2083055;28;19925;-65
2024/01/14 02:27:34;;;;;;;;;;;;;;;17.41;58.37;98715.91;2087930;28;20015;-66
2024/01/14 02:28:35;;;;;;;;;;;;;;;17.41;58.40;98710.53;2088126;28;19932;-65
2024/01/14 02:29:39;;;;;;;;;;;;;;;17.41;58.43;98710.53;2089523;28;19932;-65
2024/01/14 02:30:39;;;;;;;;;;;;;;;17.37;58.61;98701.25;2083001;28;19994;-66
2024/01/14 02:31:41;;;;;;;;;;;;;;;17.37;58.47;98698.56;2090018;28;20516;-65
2024/01/14 02:32:41;;;;;;;;;;;;;;;17.37;58.63;98699.38;2087275;28;19936;-65
2024/01/14 02:33:43;;;;;;;;;;;;;;;17.34;58.71;98698.94;2088616;28;20470;-65
2024/01/14 02:34:44;;;;;;;;;;;;;;;17.35;58.36;98700.59;2084010;28;19924;-65
2024/01/14 02:35:45;;;;;;;;;;;;;;;17.35;58.52;98696.06;2087750;28;19952;-65
2024/01/14 02:36:46;;;;;;;;;;;;;;;17.36;58.41;98692.38;2084744;28;19929;-65
2024/01/14 02:37:48;;;;;;;;;;;;;;;17.35;58.47;98692.56;2088755;28;20003;-65
2024/01/14 02:38:49;;;;;;;;;;;;;;;17.34;58.39;98690.91;2084299;28;20300;-65
2024/01/14 02:39:52;;;;;;;;;;;;;;;17.33;58.55;98699.97;2088015;28;19931;-65
2024/01/14 02:40:52;;;;;;;;;;;;;;;17.31;58.53;98693.97;2090522;28;19925;-65
2024/01/14 02:41:54;;;;;;;;;;;;;;;17.29;58.41;98699.53;2088179;28;19995;-65
2024/01/14 02:42:55;;;;;;;;;;;;;;;17.30;58.40;98694.97;2089878;28;19928;-65
2024/01/14 02:43:56;;;;;;;;;;;;;;;17.26;58.65;98691.03;2087858;28;20047;-65
2024/01/14 02:44:57;;;;;;;;;;;;;;;17.27;58.58;98688.16;2089958;28;19929;-65
2024/01/14 02:45:59;;;;;;;;;;;;;;;17.27;58.73;98698.06;2091094;28;20565;-65
2024/01/14 02:46:59;;;;;;;;;;;;;;;17.26;58.48;98697.22;2087452;28;19932;-65
2024/01/14 02:48:01;;;;;;;;;;;;;;;17.26;58.49;98693.72;2086902;28;19968;-65
2024/01/14 02:49:02;;;;;;;;;;;;;;;17.24;58.50;98683.19;2087829;28;19932;-65
2024/01/14 02:50:03;;;;;;;;;;;;;;;17.23;58.70;98686.06;2087472;28;19932;-65
2024/01/14 02:51:04;;;;;;;;;;;;;;;17.19;58.59;98683.78;2087251;28;19929;-66
2024/01/14 02:52:06;;;;;;;;;;;;;;;17.20;58.81;98688.09;2086944;28;20032;-66
2024/01/14 02:53:07;;;;;;;;;;;;;;;17.20;58.72;98680.06;2089639;28;19928;-65
2024/01/14 02:54:09;;;;;;;;;;;;;;;17.19;58.79;98683.78;2086578;28;20024;-65
2024/01/14 02:55:11;;;;;;;;;;;;;;;17.18;58.74;98689.31;2089126;28;20536;-66
2024/01/14 02:56:13;;;;;;;;;;;;;;;17.16;58.59;98681.50;2088633;28;20319;-65
2024/01/14 02:57:13;;;;;;;;;;;;;;;17.15;58.79;98679.00;2085830;28;19975;-65
2024/01/14 02:58:15;;;;;;;;;;;;;;;17.16;58.60;98688.66;2084907;28;21035;-66
2024/01/14 02:59:15;;;;;;;;;;;;;;;17.13;58.60;98687.25;2085862;28;19943;-65
2024/01/14 03:00:17;;;;;;;;;;;;;;;17.15;58.77;98684.34;2083961;28;20011;-66
2024/01/14 03:01:18;;;;;;;;;;;;;;;17.16;58.54;98681.50;2085136;28;19928;-65
2024/01/14 03:02:18;;;;;;;;;;;;;;;17.13;58.70;98676.53;2086071;28;19975;-65
2024/01/14 03:03:20;;;;;;;;;;;;;;;17.13;58.82;98679.19;2088911;28;20516;-65
2024/01/14 03:04:21;;;;;;;;;;;;;;;17.13;58.54;98681.88;2085384;28;20015;-65
2024/01/14 03:05:22;;;;;;;;;;;;;;;17.12;58.78;98680.19;2089543;28;19928;-65
2024/01/14 03:06:23;;;;;;;;;;;;;;;17.11;58.69;98678.56;2089644;28;20311;-65
2024/01/14 03:07:25;;;;;;;;;;;;;;;17.09;58.82;98680.59;2090742;28;19982;-66
2024/01/14 03:08:25;;;;;;;;;;;;;;;17.08;58.82;98678.94;2086203;28;19925;-65
2024/01/14 03:09:27;;;;;;;;;;;;;;;17.08;58.52;98676.25;2084140;28;20011;-65
2024/01/14 03:10:29;;;;;;;;;;;;;;;17.07;58.82;98677.25;2088341;28;19928;-67
2024/01/14 03:11:30;;;;;;;;;;;;;;;17.08;58.80;98678.94;2089013;28;19928;-65
2024/01/14 03:12:31;;;;;;;;;;;;;;;17.09;58.56;98672.53;2085594;28;19936;-65
2024/01/14 03:13:33;;;;;;;;;;;;;;;17.08;58.47;98678.94;2088200;28;19933;-65
2024/01/14 03:14:34;;;;;;;;;;;;;;;17.07;58.79;98676.44;2087654;28;20026;-65
2024/01/14 03:15:36;;;;;;;;;;;;;;;17.05;58.82;98675.78;2086294;28;19972;-65
2024/01/14 03:16:36;;;;;;;;;;;;;;;17.03;58.82;98676.00;2085553;28;19982;-65
2024/01/14 03:17:38;;;;;;;;;;;;;;;17.05;58.68;98676.66;2083276;28;20377;-65
2024/01/14 03:18:38;;;;;;;;;;;;;;;17.06;58.60;98677.47;2089877;28;19936;-65
2024/01/14 03:19:40;;;;;;;;;;;;;;;17.03;58.85;98673.31;2088300;28;19956;-65
2024/01/14 03:20:41;;;;;;;;;;;;;;;17.01;58.82;98678.03;2089913;28;19933;-65
2024/01/14 03:21:42;;;;;;;;;;;;;;;17.01;58.92;98672.69;2087788;28;19972;-66
2024/01/14 03:22:43;;;;;;;;;;;;;;;17.02;58.87;98676.19;2089022;28;19925;-65
2024/01/14 03:23:44;;;;;;;;;;;;;;;17.02;58.80;98673.50;2085830;28;19968;-65
2024/01/14 03:24:45;;;;;;;;;;;;;;;17.01;58.72;98672.69;2084841;28;19928;-65
2024/01/14 03:25:47;;;;;;;;;;;;;;;17.02;58.80;98677.03;2085076;28;20495;-65
2024/01/14 03:26:49;;;;;;;;;;;;;;;17.02;58.73;98673.50;2085566;28;19976;-65
2024/01/14 03:27:49;;;;;;;;;;;;;;;17.00;58.75;98672.88;2088465;28;19932;-65
2024/01/14 03:28:51;;;;;;;;;;;;;;;17.02;58.74;98677.03;2087083;28;19980;-65
2024/01/14 03:29:51;;;;;;;;;;;;;;;17.01;58.68;98671.84;2089759;28;19933;-65
2024/01/14 03:30:53;;;;;;;;;;;;;;;17.04;58.54;98671.47;2089120;28;20020;-65
2024/01/14 03:31:54;;;;;;;;;;;;;;;17.01;58.72;98675.34;2085182;28;19928;-66
2024/01/14 03:32:55;;;;;;;;;;;;;;;16.98;58.56;98676.56;2089717;28;19975;-65
2024/01/14 03:33:56;;;;;;;;;;;;;;;16.99;58.86;98674.72;2087390;28;19932;-65
2024/01/14 03:34:57;;;;;;;;;;;;;;;17.00;58.72;98668.34;2083317;28;20023;-66
2024/01/14 03:36:00;;;;;;;;;;;;;;;16.94;58.79;98678.00;2088149;28;19932;-66
2024/01/14 03:37:01;;;;;;;;;;;;;;;16.94;58.58;98671.81;2086246;28;19924;-65
2024/01/14 03:38:02;;;;;;;;;;;;;;;16.91;58.76;98670.34;2085079;28;19932;-65
2024/01/14 03:39:05;;;;;;;;;;;;;;;16.91;58.92;98666.81;2086106;28;20008;-65
2024/01/14 03:40:06;;;;;;;;;;;;;;;16.93;58.70;98660.22;2086112;28;20344;-65
2024/01/14 03:41:09;;;;;;;;;;;;;;;16.92;58.91;98660.44;2087705;28;19928;-65
2024/01/14 03:42:09;;;;;;;;;;;;;;;16.91;58.86;98664.13;2086911;28;19960;-65
2024/01/14 03:43:11;;;;;;;;;;;;;;;16.89;58.77;98660.84;2090283;28;19963;-65
2024/01/14 03:44:11;;;;;;;;;;;;;;;16.88;58.78;98651.97;2085083;28;20494;-65
2024/01/14 03:45:13;;;;;;;;;;;;;;;16.90;58.77;98654.44;2089790;28;20023;-65
2024/01/14 03:46:14;;;;;;;;;;;;;;;16.86;58.94;98654.00;2086070;28;19924;-65
2024/01/14 03:47:16;;;;;;;;;;;;;;;16.86;59.03;98658.53;2088689;28;19929;-65
2024/01/14 03:48:16;;;;;;;;;;;;;;;16.86;59.00;98650.50;2087643;28;19929;-65
2024/01/14 03:49:18;;;;;;;;;;;;;;;16.86;58.94;98654.00;2088002;28;19952;-65
2024/01/14 03:50:18;;;;;;;;;;;;;;;16.87;58.75;98657.50;2080316;28;19933;-65
2024/01/14 03:51:20;;;;;;;;;;;;;;;16.85;58.89;98654.19;2076395;28;20024;-65
2024/01/14 03:52:20;;;;;;;;;;;;;;;16.85;58.80;98657.69;2078534;28;19936;-65
2024/01/14 03:53:21;;;;;;;;;;;;;;;16.79;58.90;98652.28;2079018;28;20601;-65
2024/01/14 03:54:23;;;;;;;;;;;;;;;16.78;58.90;98650.63;2078035;28;20020;-65
2024/01/14 03:55:23;;;;;;;;;;;;;;;16.81;58.95;98650.25;2078038;28;19929;-65
2024/01/14 03:56:26;;;;;;;;;;;;;;;16.81;58.93;98659.09;2077757;28;19933;-65
2024/01/14 03:57:27;;;;;;;;;;;;;;;16.81;58.84;98648.38;2082101;28;19935;-66
2024/01/14 03:58:28;;;;;;;;;;;;;;;16.81;58.95;98651.06;2078998;28;19933;-65
2024/01/14 03:59:29;;;;;;;;;;;;;;;16.78;59.02;98656.81;2080265;28;19936;-67
2024/01/14 04:00:31;;;;;;;;;;;;;;;16.79;58.85;98654.94;2077431;28;19995;-66
2024/01/14 04:01:31;;;;;;;;;;;;;;;16.77;58.98;98651.63;2080245;28;19940;-65
2024/01/14 04:02:33;;;;;;;;;;;;;;;16.77;58.92;98651.63;2079895;28;19968;-65
2024/01/14 04:03:33;;;;;;;;;;;;;;;16.78;58.86;98650.63;2078888;28;19924;-65
2024/01/14 04:04:35;;;;;;;;;;;;;;;16.77;58.98;98648.94;2077332;28;20595;-65
2024/01/14 04:05:36;;;;;;;;;;;;;;;16.74;59.11;98648.31;2078726;28;20564;-65
2024/01/14 04:06:37;;;;;;;;;;;;;;;16.77;58.84;98643.59;2081432;28;19964;-65
2024/01/14 04:07:38;;;;;;;;;;;;;;;16.78;58.87;98646.09;2081582;28;19929;-66
2024/01/14 04:08:39;;;;;;;;;;;;;;;16.79;58.75;98638.88;2085947;28;19980;-65
2024/01/14 04:09:40;;;;;;;;;;;;;;;16.74;58.93;98640.28;2076212;28;19928;-65
2024/01/14 04:10:42;;;;;;;;;;;;;;;16.76;58.88;98637.38;2079791;28;19982;-65
2024/01/14 04:11:44;;;;;;;;;;;;;;;16.75;58.92;98639.25;2080424;28;19929;-65
2024/01/14 04:12:46;;;;;;;;;;;;;;;16.75;58.84;98631.19;2077888;28;19935;-65
2024/01/14 04:13:46;;;;;;;;;;;;;;;16.74;58.81;98634.06;2077801;28;19932;-65
2024/01/14 04:14:47;;;;;;;;;;;;;;;16.77;58.61;98630.19;2076806;28;19939;-65
2024/01/14 04:15:49;;;;;;;;;;;;;;;16.73;58.83;98630.56;2078917;28;20024;-65
2024/01/14 04:16:49;;;;;;;;;;;;;;;16.71;58.96;98626.41;2081347;28;20009;-65
2024/01/14 04:17:51;;;;;;;;;;;;;;;16.73;58.69;98627.06;2076782;28;19929;-65
2024/01/14 04:18:51;;;;;;;;;;;;;;;16.72;58.83;98631.59;2081468;28;19966;-65
2024/01/14 04:19:52;;;;;;;;;;;;;;;16.68;58.83;98630.28;2076536;28;19984;-65
2024/01/14 04:20:54;;;;;;;;;;;;;;;16.69;58.89;98636.50;2081762;28;19929;-65
2024/01/14 04:21:54;;;;;;;;;;;;;;;16.67;58.97;98631.31;2081080;28;19925;-65
2024/01/14 04:22:55;;;;;;;;;;;;;;;16.69;58.92;98633.81;2079684;28;20380;-65
2024/01/14 04:23:58;;;;;;;;;;;;;;;16.69;58.95;98637.31;2077257;28;19975;-65
2024/01/14 04:24:59;;;;;;;;;;;;;;;16.70;58.77;98638.97;2075793;28;20043;-65
2024/01/14 04:26:04;;;;;;;;;;;;;;;16.68;58.88;98641.00;2078994;28;19948;-65
2024/01/14 04:27:07;;;;;;;;;;;;;;;16.68;58.95;98638.31;2075200;28;19928;-65
2024/01/14 04:28:08;;;;;;;;;;;;;;;16.66;58.92;98639.53;2080528;28;19944;-65
2024/01/14 04:29:09;;;;;;;;;;;;;;;16.64;59.05;98642.41;2080523;28;19936;-65
2024/01/14 04:30:11;;;;;;;;;;;;;;;16.63;59.01;98637.25;2078214;28;20023;-65
2024/01/14 04:31:12;;;;;;;;;;;;;;;16.62;58.91;98633.75;2079436;28;20035;-65
2024/01/14 04:32:13;;;;;;;;;;;;;;;16.61;59.00;98645.47;2076235;28;19960;-65
2024/01/14 04:33:14;;;;;;;;;;;;;;;16.62;59.05;98641.78;2077640;28;20308;-65
2024/01/14 04:34:15;;;;;;;;;;;;;;;16.62;58.96;98636.41;2078587;28;20024;-65
2024/01/14 04:35:16;;;;;;;;;;;;;;;16.62;59.07;98636.41;2075803;28;19933;-66
2024/01/14 04:36:17;;;;;;;;;;;;;;;16.60;58.88;98641.13;2088988;28;20011;-65
2024/01/14 04:37:18;;;;;;;;;;;;;;;16.63;58.85;98643.47;2078466;28;19936;-66
2024/01/14 04:38:20;;;;;;;;;;;;;;;16.59;58.97;98638.66;2079812;28;20607;-65
2024/01/14 04:39:20;;;;;;;;;;;;;;;16.59;58.81;98634.13;2078381;28;19928;-65
2024/01/14 04:40:22;;;;;;;;;;;;;;;16.57;58.91;98633.47;2074160;28;20330;-66
2024/01/14 04:41:23;;;;;;;;;;;;;;;16.57;58.90;98644.19;2076976;28;19952;-65
2024/01/14 04:42:26;;;;;;;;;;;;;;;16.57;59.09;98641.50;2077964;28;19932;-65
2024/01/14 04:43:28;;;;;;;;;;;;;;;16.55;58.96;98640.91;2075802;28;20043;-64
2024/01/14 04:44:29;;;;;;;;;;;;;;;16.56;58.92;98631.84;2076661;28;20015;-66
2024/01/14 04:45:30;;;;;;;;;;;;;;;16.57;58.98;98638.84;2076388;28;19989;-65
2024/01/14 04:46:30;;;;;;;;;;;;;;;16.56;59.23;98637.19;2078114;28;19925;-65
2024/01/14 04:47:32;;;;;;;;;;;;;;;16.55;58.98;98635.53;2081536;28;19931;-66
2024/01/14 04:48:33;;;;;;;;;;;;;;;16.55;58.92;98627.50;2079040;28;19932;-66
2024/01/14 04:49:34;;;;;;;;;;;;;;;16.52;59.12;98634.06;2080812;28;20017;-65
2024/01/14 04:50:35;;;;;;;;;;;;;;;16.57;59.08;98632.66;2077590;28;19933;-65
2024/01/14 04:51:37;;;;;;;;;;;;;;;16.53;58.97;98630.34;2079128;28;20884;-65
2024/01/14 04:52:38;;;;;;;;;;;;;;;16.51;59.06;98634.25;2078580;28;19925;-65
2024/01/14 04:53:39;;;;;;;;;;;;;;;16.56;58.87;98636.38;2076935;28;19990;-65
2024/01/14 04:54:40;;;;;;;;;;;;;;;16.52;58.97;98635.94;2073944;28;20311;-65
2024/01/14 04:55:41;;;;;;;;;;;;;;;16.51;59.01;98631.56;2075248;28;20020;-65
2024/01/14 04:56:42;;;;;;;;;;;;;;;16.52;59.05;98630.56;2074775;28;19940;-65
2024/01/14 04:57:44;;;;;;;;;;;;;;;16.50;59.20;98635.28;2079821;28;20048;-65
2024/01/14 04:58:46;;;;;;;;;;;;;;;16.53;58.85;98627.69;2074334;28;19933;-65
2024/01/14 04:59:47;;;;;;;;;;;;;;;16.49;58.95;98631.78;2078903;28;19929;-65
2024/01/14 05:00:47;;;;;;;;;;;;;;;16.51;59.14;98635.06;2075394;28;20458;-65
2024/01/14 05:01:49;;;;;;;;;;;;;;;16.49;58.97;98626.41;2078238;28;19937;-65
2024/01/14 05:02:49;;;;;;;;;;;;;;;16.46;58.88;98632.13;2077789;28;22400;-65
2024/01/14 05:03:50;;;;;;;;;;;;;;;16.41;59.15;98623.88;2079110;28;20036;-65
2024/01/14 05:04:51;;;;;;;;;;;;;;;16.43;59.15;98621.81;2078037;28;19933;-65
2024/01/14 05:05:53;;;;;;;;;;;;;;;16.45;59.25;98626.97;2078306;28;20270;-65
2024/01/14 05:06:54;;;;;;;;;;;;;;;16.47;58.97;98627.63;2076156;28;19935;-65
2024/01/14 05:07:55;;;;;;;;;;;;;;;16.48;59.16;98629.28;2081209;28;20474;-66
2024/01/14 05:08:57;;;;;;;;;;;;;;;16.48;58.96;98629.28;2077160;28;19969;-65
2024/01/14 05:09:57;;;;;;;;;;;;;;;16.49;58.93;98620.22;2077696;28;19936;-65
2024/01/14 05:10:59;;;;;;;;;;;;;;;16.45;58.89;98624.31;2077810;28;20011;-65
2024/01/14 05:12:00;;;;;;;;;;;;;;;16.47;58.88;98628.44;2078069;28;20407;-65
2024/01/14 05:13:03;;;;;;;;;;;;;;;16.45;58.86;98630.47;2085867;28;19964;-65
2024/01/14 05:14:03;;;;;;;;;;;;;;;16.44;58.90;98630.69;2078850;28;19933;-65
2024/01/14 05:15:05;;;;;;;;;;;;;;;16.46;58.87;98625.94;2076946;28;19968;-65
2024/01/14 05:16:06;;;;;;;;;;;;;;;16.44;58.85;98626.16;2079127;28;20601;-65
2024/01/14 05:17:08;;;;;;;;;;;;;;;16.42;58.90;98630.03;2078908;28;19925;-65
2024/01/14 05:18:08;;;;;;;;;;;;;;;16.40;59.18;98627.53;2077943;28;19940;-65
2024/01/14 05:19:10;;;;;;;;;;;;;;;16.38;59.10;98620.72;2074051;28;19935;-65